Time;durP1;ratioP1;P1;durP2;ratioP2;P2;SDS_P1;SDS_P2;PMS_P1;PMS_P2;Temp;Humidity;BMP_temperature;BMP_pressure;BME280_temperature;BME280_humidity;BME280_pressure;Samples;Min_cycle;Max_cycle;Signal;HPM_P1;HPM_P2
2021/07/24 04:04:42;16957.00;0.06;30.00;0.00;0.00;0.62;;;;;23.80;1.00;;;;;;2258929;61;1272;-86
2021/07/24 04:07:09;207708.00;0.69;359.19;0.00;0.00;0.62;;;;;23.60;1.00;;;;;;2256988;61;1158;-87
2021/07/24 04:09:36;78418.00;0.26;136.30;0.00;0.00;0.62;;;;;23.60;1.00;;;;;;2256969;61;1431;-87
2021/07/24 04:12:03;96957.00;0.32;168.32;0.00;0.00;0.62;;;;;23.50;1.00;;;;;;2256877;61;2009;-86
2021/07/24 04:14:30;0.00;0.00;0.62;0.00;0.00;0.62;;;;;23.30;1.00;;;;;;2256650;61;1169;-86
2021/07/24 04:16:57;171221.00;0.57;296.37;44157.00;0.15;77.08;;;;;23.20;1.00;;;;;;2256940;61;1016;-86
2021/07/24 04:19:24;22411.00;0.07;39.44;0.00;0.00;0.62;;;;;23.10;1.00;;;;;;2256935;61;1115;-86
2021/07/24 04:21:52;57744.00;0.19;100.58;0.00;0.00;0.62;;;;;23.00;1.00;;;;;;2256672;61;1364;-87
2021/07/24 04:24:19;181268.00;0.60;313.67;38069.00;0.13;66.55;;;;;23.20;1.00;;;;;;2256855;61;1016;-87
2021/07/24 04:26:46;180968.00;0.60;313.16;20300.00;0.07;35.79;;;;;23.20;1.00;;;;;;2256928;61;937;-87
2021/07/24 04:29:13;222215.00;0.74;384.15;0.00;0.00;0.62;;;;;23.20;1.00;;;;;;2256759;61;1030;-86
2021/07/24 04:31:40;0.00;0.00;0.62;0.00;0.00;0.62;;;;;22.90;1.00;;;;;;2256746;61;1993;-88
2021/07/24 04:34:07;0.00;0.00;0.62;0.00;0.00;0.62;;;;;22.80;1.00;;;;;;2256823;61;980;-86
2021/07/24 04:36:33;276309.00;0.92;477.19;0.00;0.00;0.62;;;;;22.90;1.00;;;;;;2256339;61;932;-86
2021/07/24 04:39:02;42073.00;0.14;73.47;0.00;0.00;0.62;;;;;22.90;1.00;;;;;;2256898;61;1055;-87
2021/07/24 04:41:29;136961.00;0.46;237.33;0.00;0.00;0.62;;;;;23.10;1.00;;;;;;2256846;61;1373;-87
2021/07/24 04:43:55;387293.00;1.29;667.96;131259.00;0.44;227.50;;;;;23.30;1.00;;;;;;2256872;61;915;-87
2021/07/24 04:46:22;24133.00;0.08;42.43;0.00;0.00;0.62;;;;;23.70;1.00;;;;;;2256885;61;1083;-88
2021/07/24 04:48:49;0.00;0.00;0.62;0.00;0.00;0.62;;;;;23.80;1.00;;;;;;2256858;61;1026;-87
2021/07/24 04:51:16;69718.00;0.23;121.27;0.00;0.00;0.62;;;;;23.80;1.00;;;;;;2256758;61;1918;-87
2021/07/24 04:53:45;132938.00;0.44;230.40;0.00;0.00;0.62;;;;;23.70;1.00;;;;;;2256817;61;981;-86
2021/07/24 04:56:13;0.00;0.00;0.62;0.00;0.00;0.62;;;;;23.70;1.00;;;;;;2256823;61;1091;-87
2021/07/24 04:58:40;96458.00;0.32;167.46;0.00;0.00;0.62;;;;;23.60;1.00;;;;;;2256824;61;1085;-87
2021/07/24 05:01:07;189578.00;0.63;327.98;0.00;0.00;0.62;;;;;23.50;1.00;;;;;;2256814;61;1293;-88
2021/07/24 05:03:36;9750.00;0.03;17.52;0.00;0.00;0.62;;;;;23.70;1.00;;;;;;2256798;61;1051;-86
2021/07/24 05:06:05;107018.00;0.36;185.68;0.00;0.00;0.62;;;;;23.50;1.00;;;;;;2256797;61;1058;-87
2021/07/24 05:08:33;132765.00;0.44;230.10;22211.00;0.07;39.10;;;;;23.30;1.00;;;;;;2256808;61;1103;-87
2021/07/24 05:11:00;25884.00;0.09;45.46;0.00;0.00;0.62;;;;;23.60;1.00;;;;;;2256766;61;1997;-87
2021/07/24 05:13:29;79248.00;0.26;137.74;0.00;0.00;0.62;;;;;23.80;1.00;;;;;;2256810;61;1016;-87
2021/07/24 05:15:55;26822.00;0.09;47.08;0.00;0.00;0.62;;;;;23.50;1.00;;;;;;2256800;61;996;-87
2021/07/24 05:18:22;250862.00;0.84;433.43;0.00;0.00;0.62;;;;;23.40;1.00;;;;;;2256765;61;1121;-87
2021/07/24 05:20:49;0.00;0.00;0.62;0.00;0.00;0.62;;;;;23.70;1.00;;;;;;2256765;61;1051;-87
2021/07/24 05:23:16;30419.00;0.10;53.31;0.00;0.00;0.62;;;;;23.80;1.00;;;;;;2256744;61;1344;-87
2021/07/24 05:25:43;193629.00;0.65;334.96;0.00;0.00;0.62;;;;;23.60;1.00;;;;;;2256690;61;1717;-87
2021/07/24 05:28:11;241137.00;0.80;416.71;8473.00;0.03;15.30;;;;;23.80;1.00;;;;;;2256677;61;1697;-87
2021/07/24 05:30:40;109681.00;0.37;190.28;36063.00;0.12;63.08;;;;;24.10;1.00;;;;;;2256694;61;1915;-87
2021/07/24 05:33:06;52965.00;0.18;92.31;0.00;0.00;0.62;;;;;24.20;1.00;;;;;;2256679;61;1393;-87
2021/07/24 05:35:33;73880.00;0.25;128.46;0.00;0.00;0.62;;;;;24.30;1.00;;;;;;2256698;61;1133;-87
2021/07/24 05:38:00;0.00;0.00;0.62;0.00;0.00;0.62;;;;;24.40;1.00;;;;;;2256718;61;945;-87
2021/07/24 05:40:27;238463.00;0.79;412.11;0.00;0.00;0.62;;;;;24.50;1.00;;;;;;2256675;61;1058;-86
2021/07/24 05:42:59;0.00;0.00;0.62;0.00;0.00;0.62;;;;;24.80;1.00;;;;;;2256625;61;1277;-87
2021/07/24 05:45:26;106451.00;0.35;184.71;0.00;0.00;0.62;;;;;24.50;1.00;;;;;;2256680;61;1116;-85
2021/07/24 05:47:54;32946.00;0.11;57.68;0.00;0.00;0.62;;;;;24.90;1.00;;;;;;2256640;61;1027;-85
2021/07/24 05:50:21;60935.00;0.20;106.09;0.00;0.00;0.62;;;;;25.20;1.00;;;;;;2256633;61;1924;-88
2021/07/24 05:52:48;26997.00;0.09;47.38;0.00;0.00;0.62;;;;;24.70;1.00;;;;;;2256614;61;1372;-88
2021/07/24 05:55:15;8104.00;0.03;14.66;0.00;0.00;0.62;;;;;24.60;1.00;;;;;;2256636;61;1095;-87
2021/07/24 05:57:42;0.00;0.00;0.62;0.00;0.00;0.62;;;;;24.50;1.00;;;;;;2256610;61;1061;-87
2021/07/24 06:00:10;201.00;0.00;0.97;0.00;0.00;0.62;;;;;24.30;1.00;;;;;;2256538;61;993;-86
2021/07/24 06:02:37;77900.00;0.26;135.41;0.00;0.00;0.62;;;;;24.70;1.00;;;;;;2256553;61;1273;-87
2021/07/24 06:05:07;99129.00;0.33;172.07;7756.00;0.03;14.06;;;;;24.10;1.00;;;;;;2256641;61;1028;-86
2021/07/24 06:07:33;58217.00;0.19;101.39;0.00;0.00;0.62;;;;;23.80;1.00;;;;;;2256484;61;1034;-86
2021/07/24 06:10:00;126467.00;0.42;219.24;30034.00;0.10;52.64;;;;;24.20;1.00;;;;;;2256521;61;1165;-87
2021/07/24 06:12:27;1562.00;0.01;3.33;0.00;0.00;0.62;;;;;23.90;1.00;;;;;;2256527;61;1924;-87
2021/07/24 06:14:54;233411.00;0.78;403.42;28702.00;0.10;50.34;;;;;24.30;1.00;;;;;;2256568;61;1135;-87
2021/07/24 06:17:21;41419.00;0.14;72.34;0.00;0.00;0.62;;;;;24.20;1.00;;;;;;2256575;61;1090;-86
2021/07/24 06:19:48;108467.00;0.36;188.18;0.00;0.00;0.62;;;;;24.40;1.00;;;;;;2256532;61;1122;-87
2021/07/24 06:22:16;89189.00;0.30;154.91;0.00;0.00;0.62;;;;;24.10;1.00;;;;;;2256456;61;1731;-87
2021/07/24 06:24:43;83768.00;0.28;145.55;0.00;0.00;0.62;;;;;24.20;1.00;;;;;;2256559;61;1114;-86
2021/07/24 06:27:10;313469.00;1.04;541.07;18733.00;0.06;33.08;;;;;24.40;1.00;;;;;;2256474;61;1616;-86
2021/07/24 06:29:37;124664.00;0.42;216.13;0.00;0.00;0.62;;;;;24.50;1.00;;;;;;2256492;61;1088;-86
2021/07/24 06:32:04;81968.00;0.27;142.44;0.00;0.00;0.62;;;;;24.60;1.00;;;;;;2256418;61;2431;-86
2021/07/24 06:34:32;92283.00;0.31;160.25;0.00;0.00;0.62;;;;;24.80;1.00;;;;;;2256484;61;1134;-86
2021/07/24 06:37:00;0.00;0.00;0.62;0.00;0.00;0.62;;;;;24.80;1.00;;;;;;2256539;61;996;-87
2021/07/24 06:39:28;25664.00;0.09;45.08;0.00;0.00;0.62;;;;;24.80;1.00;;;;;;2256440;61;1670;-87
2021/07/24 06:41:56;0.00;0.00;0.62;0.00;0.00;0.62;;;;;25.00;1.00;;;;;;2256443;61;1380;-87
2021/07/24 06:44:23;245263.00;0.82;423.80;27945.00;0.09;49.03;;;;;25.30;1.00;;;;;;2256482;61;1072;-87
2021/07/24 06:46:50;214578.00;0.72;371.01;42889.00;0.14;74.89;;;;;25.70;1.00;;;;;;2256488;61;1094;-87
2021/07/24 06:49:17;90333.00;0.30;156.88;0.00;0.00;0.62;;;;;25.50;1.00;;;;;;2256456;61;1003;-86
2021/07/24 06:51:43;79166.00;0.26;137.60;0.00;0.00;0.62;;;;;25.60;1.00;;;;;;2256337;61;1928;-85
2021/07/24 06:54:10;158762.00;0.53;274.91;25578.00;0.09;44.93;;;;;25.70;1.00;;;;;;2256324;61;1655;-84
2021/07/24 06:56:39;14054.00;0.05;24.97;0.00;0.00;0.62;;;;;26.00;1.00;;;;;;2256460;61;918;-84
2021/07/24 06:59:05;42928.00;0.14;74.95;0.00;0.00;0.62;;;;;25.80;1.00;;;;;;2256467;61;981;-86
2021/07/24 07:01:32;219885.00;0.73;380.15;5352.00;0.02;9.90;;;;;25.70;1.00;;;;;;2256361;61;1395;-85
2021/07/24 07:03:59;0.00;0.00;0.62;0.00;0.00;0.62;;;;;25.60;1.00;;;;;;2256291;61;1145;-85
2021/07/24 07:06:26;45481.00;0.15;79.37;0.00;0.00;0.62;;;;;25.60;1.00;;;;;;2256424;61;1079;-86
2021/07/24 07:08:53;24214.00;0.08;42.57;0.00;0.00;0.62;;;;;25.70;1.00;;;;;;2251856;61;1037;-85
2021/07/24 07:11:20;124181.00;0.41;215.29;53374.00;0.18;93.02;;;;;25.80;1.00;;;;;;2251823;61;1915;-85
2021/07/24 07:13:48;57517.00;0.19;100.18;0.00;0.00;0.62;;;;;26.00;1.00;;;;;;2251969;61;1011;-86
2021/07/24 07:16:15;27980.00;0.09;49.09;0.00;0.00;0.62;;;;;26.20;1.00;;;;;;2251924;61;1045;-86
2021/07/24 07:18:42;392302.00;1.31;676.57;0.00;0.00;0.62;;;;;26.40;1.00;;;;;;2251950;61;1123;-86
2021/07/24 07:21:10;94653.00;0.32;164.34;0.00;0.00;0.62;;;;;26.40;1.00;;;;;;2251881;61;1303;-86
2021/07/24 07:23:37;253123.00;0.84;437.32;0.00;0.00;0.62;;;;;26.50;1.00;;;;;;2251922;61;1091;-87
2021/07/24 07:26:04;37329.00;0.12;65.27;1432.00;0.00;3.10;;;;;26.70;1.00;;;;;;2252473;61;1087;-87
2021/07/24 07:28:31;29561.00;0.10;51.82;0.00;0.00;0.62;;;;;26.60;1.00;;;;;;2256372;61;1032;-86
2021/07/24 07:30:59;19953.00;0.07;35.19;0.00;0.00;0.62;;;;;26.70;1.00;;;;;;2256327;61;2002;-87
2021/07/24 07:33:26;30646.00;0.10;53.70;0.00;0.00;0.62;;;;;26.80;1.00;;;;;;2256284;61;1646;-86
2021/07/24 07:35:53;106302.00;0.35;184.45;0.00;0.00;0.62;;;;;27.00;1.00;;;;;;2256342;61;1678;-87
2021/07/24 07:38:20;6925.00;0.02;12.62;0.00;0.00;0.62;;;;;27.30;1.00;;;;;;2256359;61;1044;-86
2021/07/24 07:40:47;83726.00;0.28;145.47;0.00;0.00;0.62;;;;;27.40;1.00;;;;;;2256361;61;1154;-86
2021/07/24 07:43:14;116986.00;0.39;202.88;17987.00;0.06;31.78;;;;;27.20;1.00;;;;;;2256261;61;1315;-87
2021/07/24 07:45:41;48090.00;0.16;83.88;0.00;0.00;0.62;;;;;26.80;1.00;;;;;;2256311;61;942;-86
2021/07/24 07:48:09;184389.00;0.61;319.05;0.00;0.00;0.62;;;;;26.70;1.00;;;;;;2256336;61;1076;-86
2021/07/24 07:50:36;0.00;0.00;0.62;0.00;0.00;0.62;;;;;26.60;1.00;;;;;;2256370;61;1084;-86
2021/07/24 07:53:03;21945.00;0.07;38.64;0.00;0.00;0.62;;;;;26.90;1.00;;;;;;2256209;61;1999;-87
2021/07/24 07:55:30;138566.00;0.46;240.10;0.00;0.00;0.62;;;;;26.90;1.00;;;;;;2256307;61;1125;-86
2021/07/24 07:57:57;0.00;0.00;0.62;0.00;0.00;0.62;;;;;27.20;1.00;;;;;;2256288;61;1008;-86
2021/07/24 08:00:24;0.00;0.00;0.62;0.00;0.00;0.62;;;;;27.50;1.00;;;;;;2256331;61;866;-85
2021/07/24 08:02:53;67194.00;0.22;116.91;0.00;0.00;0.62;;;;;27.30;1.00;;;;;;2256146;61;1400;-86
2021/07/24 08:05:22;77246.00;0.26;134.28;0.00;0.00;0.62;;;;;27.20;1.00;;;;;;2256460;61;1056;-86
2021/07/24 08:07:49;279039.00;0.93;481.89;35960.00;0.12;62.90;;;;;27.30;1.00;;;;;;2256911;61;1134;-88
2021/07/24 08:10:16;101116.00;0.34;175.50;0.00;0.00;0.62;;;;;27.60;1.00;;;;;;2256941;61;1113;-89
2021/07/24 08:12:43;33612.00;0.11;58.83;0.00;0.00;0.62;;;;;27.90;1.00;;;;;;2256896;61;2003;-87
2021/07/24 08:15:10;3196.00;0.01;6.16;0.00;0.00;0.62;;;;;27.60;1.00;;;;;;2256999;61;915;-86
2021/07/24 08:17:37;103174.00;0.34;179.05;0.00;0.00;0.62;;;;;27.00;1.00;;;;;;2256958;61;1024;-85
2021/07/24 08:20:06;11009.00;0.04;19.70;0.00;0.00;0.62;;;;;27.00;1.00;;;;;;2256743;61;1025;-85
2021/07/24 08:22:34;0.00;0.00;0.62;0.00;0.00;0.62;;;;;26.40;1.00;;;;;;2256874;61;1398;-87
2021/07/24 08:25:01;164983.00;0.55;285.62;25801.00;0.09;45.31;;;;;26.10;1.00;;;;;;2256872;61;1013;-86
2021/07/24 08:27:32;0.00;0.00;0.62;0.00;0.00;0.62;;;;;26.50;1.00;;;;;;2256921;61;1078;-86
2021/07/24 08:29:59;37254.00;0.12;65.14;0.00;0.00;0.62;;;;;26.90;1.00;;;;;;2256913;61;1060;-86
2021/07/24 08:32:26;26103.00;0.09;45.84;0.00;0.00;0.62;;;;;27.30;1.00;;;;;;2256820;61;2025;-86
2021/07/24 08:34:53;108967.00;0.36;189.05;0.00;0.00;0.62;;;;;27.70;1.00;;;;;;2256791;61;1000;-86
2021/07/24 08:37:20;0.00;0.00;0.62;0.00;0.00;0.62;;;;;28.00;1.00;;;;;;2256832;61;1517;-88
2021/07/24 08:39:49;330485.00;1.10;570.32;57694.00;0.19;100.49;;;;;28.10;1.00;;;;;;2256876;61;1064;-88
2021/07/24 08:42:36;11971.00;0.04;21.36;0.00;0.00;0.62;;;;;28.50;1.00;;;;;;2256761;61;1288;-88
2021/07/24 08:45:05;354768.00;1.18;612.06;154334.00;0.51;267.28;;;;;28.90;1.00;;;;;;2256825;61;1124;-88
2021/07/24 08:47:32;100299.00;0.33;174.09;0.00;0.00;0.62;;;;;29.10;1.00;;;;;;2256822;61;1763;-88
2021/07/24 08:50:00;0.00;0.00;0.62;0.00;0.00;0.62;;;;;29.20;1.00;;;;;;2256866;61;1048;-89
2021/07/24 08:52:28;41143.00;0.14;71.87;0.00;0.00;0.62;;;;;29.40;1.00;;;;;;2256759;61;1999;-89
2021/07/24 08:54:57;0.00;0.00;0.62;0.00;0.00;0.62;;;;;29.60;1.00;;;;;;2256767;61;1020;-88
2021/07/24 08:57:28;107025.00;0.36;185.70;0.00;0.00;0.62;;;;;29.70;1.00;;;;;;2256811;61;1079;-89
2021/07/24 08:59:57;0.00;0.00;0.62;0.00;0.00;0.62;;;;;29.70;1.00;;;;;;2256773;61;1738;-88
2021/07/24 09:02:27;6345.00;0.02;11.62;0.00;0.00;0.62;;;;;29.90;1.00;;;;;;2256671;61;1571;-88
2021/07/24 09:04:57;59347.00;0.20;103.35;0.00;0.00;0.62;;;;;30.00;1.00;;;;;;2256810;61;1150;-88
2021/07/24 09:07:28;9392.00;0.03;16.90;0.00;0.00;0.62;;;;;30.20;1.00;;;;;;2256829;61;1064;-88
2021/07/24 09:09:59;91523.00;0.31;158.94;0.00;0.00;0.62;;;;;30.50;1.00;;;;;;2256783;61;1122;-88
2021/07/24 09:12:27;39759.00;0.13;69.47;0.00;0.00;0.62;;;;;30.20;1.00;;;;;;2256729;61;1919;-88
2021/07/24 09:14:54;80327.00;0.27;139.60;0.00;0.00;0.62;;;;;30.20;1.00;;;;;;2256776;61;989;-87
2021/07/24 09:17:22;0.00;0.00;0.62;0.00;0.00;0.62;;;;;30.00;1.00;;;;;;2256749;61;939;-88
2021/07/24 09:19:50;57410.00;0.19;100.00;0.00;0.00;0.62;;;;;29.70;1.00;;;;;;2256797;61;1233;-87
2021/07/24 09:22:31;72073.00;0.24;125.34;0.00;0.00;0.62;;;;;29.80;1.00;;;;;;2256671;61;1378;-88
2021/07/24 09:25:12;217518.00;0.73;376.07;0.00;0.00;0.62;;;;;29.90;1.00;;;;;;2256727;61;923;-88
2021/07/24 09:27:40;23667.00;0.08;41.62;0.00;0.00;0.62;;;;;29.90;1.00;;;;;;2256738;61;927;-89
2021/07/24 09:30:10;71393.00;0.24;124.17;0.00;0.00;0.62;;;;;30.20;1.00;;;;;;2256651;61;924;-89
2021/07/24 09:32:38;161465.00;0.54;279.56;19687.00;0.07;34.73;;;;;30.40;1.00;;;;;;2256638;61;2005;-88
2021/07/24 09:35:06;127510.00;0.43;221.04;0.00;0.00;0.62;;;;;30.70;1.00;;;;;;2256704;61;1208;-88
2021/07/24 09:37:33;4239.00;0.01;7.97;0.00;0.00;0.62;;;;;30.70;1.00;;;;;;2256643;61;1135;-88
2021/07/24 09:40:23;121749.00;0.41;211.10;0.00;0.00;0.62;;;;;30.30;1.00;;;;;;2256652;61;978;-88
2021/07/24 09:42:50;0.00;0.00;0.62;0.00;0.00;0.62;;;;;30.60;1.00;;;;;;2256644;61;1326;-89
2021/07/24 09:45:17;0.00;0.00;0.62;0.00;0.00;0.62;;;;;30.90;1.00;;;;;;2256688;61;1123;-89
2021/07/24 09:47:44;210700.00;0.70;364.34;63716.00;0.21;110.90;;;;;31.30;1.00;;;;;;2256692;61;1051;-88
2021/07/24 09:50:13;70097.00;0.23;121.93;0.00;0.00;0.62;;;;;31.20;1.00;;;;;;2256635;61;1055;-88
2021/07/24 09:52:47;101632.00;0.34;176.39;0.00;0.00;0.62;;;;;30.60;1.00;;;;;;2256538;61;2005;-88
2021/07/24 09:55:24;53233.00;0.18;92.78;21555.00;0.07;37.96;;;;;30.40;1.00;;;;;;2256634;61;1123;-87
2021/07/24 09:57:53;127215720.00;424.05;83415800.00;53460.00;0.18;93.17;;;;;30.40;1.00;;;;;;2256619;61;1126;-89
2021/07/24 10:00:30;18590.00;0.06;32.83;0.00;0.00;0.62;;;;;30.60;1.00;;;;;;2256567;61;1134;-88
2021/07/24 16:04:54;76657.00;0.26;133.26;0.00;0.00;0.62;;;;;32.20;1.00;;;;;;2258429;61;1266;-89
2021/07/24 16:07:21;151272.00;0.50;262.00;0.00;0.00;0.62;;;;;32.10;1.00;;;;;;2256943;61;951;-89
2021/07/24 16:09:48;161343.00;0.54;279.35;0.00;0.00;0.62;;;;;31.90;1.00;;;;;;2256354;61;1022;-88
2021/07/24 16:12:15;175727.00;0.59;304.13;0.00;0.00;0.62;;;;;31.90;1.00;;;;;;2256420;61;1920;-89
2021/07/24 16:14:41;0.00;0.00;0.62;0.00;0.00;0.62;;;;;31.80;1.00;;;;;;2249869;61;1014;-89
2021/07/24 16:17:09;26924.00;0.09;47.26;0.00;0.00;0.62;;;;;31.90;1.00;;;;;;2256496;61;967;-92
2021/07/24 16:19:35;41396.00;0.14;72.30;0.00;0.00;0.62;;;;;31.80;1.00;;;;;;2249887;61;951;-91
2021/07/24 16:22:07;191966.00;0.64;332.09;0.00;0.00;0.62;;;;;31.80;1.00;;;;;;2249824;61;1334;-91
2021/07/24 16:24:33;67298.00;0.22;117.09;0.00;0.00;0.62;;;;;31.80;1.00;;;;;;2246583;61;965;-90
2021/07/24 16:27:00;243438.00;0.81;420.66;0.00;0.00;0.62;;;;;31.70;1.00;;;;;;2256262;61;1063;-90
2021/07/24 16:29:27;55564.00;0.19;96.81;0.00;0.00;0.62;;;;;31.60;1.00;;;;;;2252346;61;978;-89
2021/07/24 16:31:55;171862.00;0.57;297.47;0.00;0.00;0.62;;;;;31.60;1.00;;;;;;2251945;61;1310;-89
2021/07/24 16:34:21;58668.00;0.20;102.17;0.00;0.00;0.62;;;;;31.50;1.00;;;;;;2252440;61;1931;-89
2021/07/24 16:36:48;47223.00;0.16;82.38;0.00;0.00;0.62;;;;;31.40;1.00;;;;;;2252300;61;1130;-89
2021/07/24 16:39:17;419087.00;1.40;722.62;103327.00;0.34;179.31;;;;;31.40;1.00;;;;;;2248336;61;980;-89
2021/07/24 16:41:44;317279.00;1.06;547.62;25401.00;0.08;44.62;;;;;31.40;1.00;;;;;;2248427;61;1405;-91
2021/07/24 16:44:11;102253.00;0.34;177.46;0.00;0.00;0.62;;;;;31.30;1.00;;;;;;2248439;61;964;-89
2021/07/24 16:46:37;185443.00;0.62;320.86;0.00;0.00;0.62;;;;;31.20;1.00;;;;;;2248919;61;1666;-91
2021/07/24 16:49:05;225926.00;0.75;390.54;0.00;0.00;0.62;;;;;31.10;1.00;;;;;;2256427;61;1057;-92
2021/07/24 16:51:32;239659.00;0.80;414.16;0.00;0.00;0.62;;;;;30.90;1.00;;;;;;2256419;61;1048;-91
2021/07/24 16:53:59;119299.00;0.40;206.87;0.00;0.00;0.62;;;;;30.70;1.00;;;;;;2256342;61;2006;-90
2021/07/24 16:56:27;115021.00;0.38;199.49;0.00;0.00;0.62;;;;;30.60;1.00;;;;;;2256390;61;941;-92
2021/07/24 16:58:55;77956.00;0.26;135.51;0.00;0.00;0.62;;;;;30.50;1.00;;;;;;2252263;61;966;-91
2021/07/24 17:01:22;524131.00;1.75;903.38;139404.00;0.46;241.54;;;;;30.30;1.00;;;;;;2252279;61;1154;-92
2021/07/24 17:03:49;127040.00;0.42;220.22;0.00;0.00;0.62;;;;;30.30;1.00;;;;;;2248909;61;1483;-91
2021/07/24 17:06:21;5139.00;0.02;9.53;0.00;0.00;0.62;;;;;30.20;1.00;;;;;;2252326;61;1017;-90
2021/07/24 17:08:48;1341.00;0.00;2.94;0.00;0.00;0.62;;;;;29.90;1.00;;;;;;2252329;61;1068;-92
2021/07/24 17:11:16;247621.00;0.83;427.86;0.00;0.00;0.62;;;;;29.90;1.00;;;;;;2245735;61;1015;-92
2021/07/24 17:13:45;65300.00;0.22;113.64;0.00;0.00;0.62;;;;;30.00;1.00;;;;;;2252240;61;1999;-92
2021/07/24 17:16:13;127344.00;0.42;220.75;0.00;0.00;0.62;;;;;29.80;1.00;;;;;;2253002;61;1471;-91
2021/07/24 17:18:42;128495.00;0.43;222.73;0.00;0.00;0.62;;;;;29.40;1.00;;;;;;2256825;61;729;-91
2021/07/24 17:21:12;0.00;0.00;0.62;0.00;0.00;0.62;;;;;29.00;1.00;;;;;;2252268;61;974;-90
2021/07/24 17:23:40;216928.00;0.72;375.06;0.00;0.00;0.62;;;;;28.70;1.00;;;;;;2245714;61;1454;-88
2021/07/24 17:26:08;135953.00;0.45;235.59;0.00;0.00;0.62;;;;;28.50;1.00;;;;;;2245700;61;960;-90
2021/07/24 17:28:36;232580.00;0.78;401.99;0.00;0.00;0.62;;;;;28.40;1.00;;;;;;2252300;61;1150;-89
2021/07/24 17:31:13;114502.00;0.38;198.60;0.00;0.00;0.62;;;;;28.30;1.00;;;;;;2252313;61;931;-91
2021/07/24 17:33:40;0.00;0.00;0.62;0.00;0.00;0.62;;;;;28.20;1.00;;;;;;2252222;61;1910;-89
2021/07/24 17:36:09;0.00;0.00;0.62;0.00;0.00;0.62;;;;;28.10;1.00;;;;;;2244272;62;1002;-89
2021/07/24 17:38:37;38101.00;0.13;66.60;0.00;0.00;0.62;;;;;28.00;1.00;;;;;;2242085;61;932;-90
2021/07/24 17:41:05;55991.00;0.19;97.55;0.00;0.00;0.62;;;;;28.10;1.00;;;;;;2248273;61;1212;-89
2021/07/24 17:43:32;305557.00;1.02;527.47;33959.00;0.11;59.44;;;;;27.90;1.00;;;;;;2240263;62;1414;-90
2021/07/24 17:45:59;235223.00;0.78;406.53;103759.00;0.35;180.06;;;;;27.90;1.00;;;;;;2228570;62;1001;-89
2021/07/24 17:48:28;115170.00;0.38;199.75;0.00;0.00;0.62;;;;;27.80;1.00;;;;;;2228533;62;1024;-88
2021/07/24 17:50:55;164383.00;0.55;284.59;0.00;0.00;0.62;;;;;27.60;1.00;;;;;;2228583;62;1090;-90
2021/07/24 17:53:22;27517.00;0.09;48.29;0.00;0.00;0.62;;;;;27.70;1.00;;;;;;2229096;62;1990;-89
2021/07/24 17:55:49;157796.00;0.53;273.24;0.00;0.00;0.62;;;;;27.70;1.00;;;;;;2233594;62;1019;-89
2021/07/24 17:58:16;0.00;0.00;0.62;0.00;0.00;0.62;;;;;27.60;1.00;;;;;;2240245;62;1030;-88
2021/07/24 18:00:44;92478.00;0.31;160.59;0.00;0.00;0.62;;;;;27.50;1.00;;;;;;2241256;61;941;-88
2021/07/24 18:03:10;132324.00;0.44;229.34;0.00;0.00;0.62;;;;;27.30;1.00;;;;;;2245154;61;1324;-89
2021/07/24 18:05:39;90853.00;0.30;157.78;0.00;0.00;0.62;;;;;27.30;1.00;;;;;;2251940;61;937;-87
2021/07/24 18:08:06;48039.00;0.16;83.79;0.00;0.00;0.62;;;;;26.90;1.00;;;;;;2248032;61;1022;-87
2021/07/24 18:10:35;77891.00;0.26;135.39;0.00;0.00;0.62;;;;;26.80;1.00;;;;;;2244789;61;990;-86
2021/07/24 18:13:03;106703.00;0.36;185.14;15211.00;0.05;26.98;;;;;26.70;1.00;;;;;;2238242;61;2000;-87
2021/07/24 18:15:30;135119.00;0.45;234.16;0.00;0.00;0.62;;;;;26.60;1.00;;;;;;2238295;61;1008;-88
2021/07/24 18:17:57;13321.00;0.04;23.70;0.00;0.00;0.62;;;;;26.60;1.00;;;;;;2236234;62;1031;-88
2021/07/24 18:20:24;340854.00;1.14;588.14;0.00;0.00;0.62;;;;;26.50;1.00;;;;;;2237205;61;998;-88
2021/07/24 18:22:54;94650.00;0.32;164.34;0.00;0.00;0.62;;;;;26.50;1.00;;;;;;2240816;61;1421;-88
2021/07/24 18:25:21;154448.00;0.51;267.47;0.00;0.00;0.62;;;;;26.30;1.00;;;;;;2234915;61;997;-88
2021/07/24 18:27:50;400311.00;1.33;690.34;105890.00;0.35;183.74;;;;;26.20;1.00;;;;;;2244723;61;969;-89
2021/07/24 18:30:17;83821.00;0.28;145.64;0.00;0.00;0.62;;;;;26.30;1.00;;;;;;2248052;61;1088;-89
2021/07/24 18:32:46;326010.00;1.09;562.63;111425.00;0.37;193.29;;;;;26.20;1.00;;;;;;2248005;61;1451;-88
2021/07/24 18:35:14;13234.00;0.04;23.55;0.00;0.00;0.62;;;;;26.50;1.00;;;;;;2249314;61;1165;-88
2021/07/24 18:37:41;128615.00;0.43;222.94;0.00;0.00;0.62;;;;;26.60;1.00;;;;;;2256034;61;996;-87
2021/07/24 18:40:10;150915.00;0.50;261.38;0.00;0.00;0.62;;;;;26.60;1.00;;;;;;2252732;61;1018;-87
2021/07/24 18:42:37;110809.00;0.37;192.23;26139.00;0.09;45.90;;;;;26.40;1.00;;;;;;2252747;61;1439;-87
2021/07/24 18:45:05;21718.00;0.07;38.25;0.00;0.00;0.62;;;;;25.90;1.00;;;;;;2256505;61;923;-91
2021/07/24 18:47:32;74084.00;0.25;128.82;0.00;0.00;0.62;;;;;25.60;1.00;;;;;;2256438;61;923;-89
2021/07/24 18:49:59;187539.00;0.63;324.47;0.00;0.00;0.62;;;;;25.50;1.00;;;;;;2252570;61;965;-89
2021/07/24 18:52:26;36034.00;0.12;63.03;0.00;0.00;0.62;;;;;25.50;1.00;;;;;;2252743;61;1353;-89
2021/07/24 18:54:53;151604.00;0.51;262.57;0.00;0.00;0.62;;;;;25.50;1.00;;;;;;2252753;61;2015;-90
2021/07/24 18:57:21;32637.00;0.11;57.15;0.00;0.00;0.62;;;;;25.60;1.00;;;;;;2251992;61;1032;-90
2021/07/24 18:59:48;159856.00;0.53;276.79;0.00;0.00;0.62;;;;;25.90;1.00;;;;;;2245477;61;1018;-88
2021/07/24 19:02:15;9497.00;0.03;17.08;0.00;0.00;0.62;;;;;25.50;1.00;;;;;;2245390;61;1306;-90
2021/07/24 19:04:44;155121.00;0.52;268.63;0.00;0.00;0.62;;;;;25.40;1.00;;;;;;2245458;61;965;-87
2021/07/24 19:07:11;8787.00;0.03;15.85;0.00;0.00;0.62;;;;;25.10;1.00;;;;;;2252046;61;997;-89
2021/07/24 19:09:38;120688.00;0.40;209.27;0.00;0.00;0.62;;;;;24.80;1.00;;;;;;2251960;61;1735;-89
2021/07/24 19:12:06;93867.00;0.31;162.98;0.00;0.00;0.62;;;;;24.80;1.00;;;;;;2251864;61;1300;-88
2021/07/24 19:14:34;37271.00;0.12;65.17;0.00;0.00;0.62;;;;;25.00;1.00;;;;;;2252595;61;1919;-90
2021/07/24 19:17:01;11331.00;0.04;20.26;0.00;0.00;0.62;;;;;24.90;1.00;;;;;;2251885;61;970;-87
2021/07/24 19:19:28;82764.00;0.28;143.81;0.00;0.00;0.62;;;;;25.20;1.00;;;;;;2251936;61;1003;-87
2021/07/24 19:21:54;107721.00;0.36;186.90;0.00;0.00;0.62;;;;;25.50;1.00;;;;;;2251935;61;1448;-88
2021/07/24 19:24:22;80898.00;0.27;140.59;0.00;0.00;0.62;;;;;25.30;1.00;;;;;;2251947;61;1010;-89
2021/07/24 19:26:48;125356.00;0.42;217.32;22713.00;0.08;39.97;;;;;25.30;1.00;;;;;;2251995;61;1001;-88
2021/07/24 19:29:15;63599.00;0.21;110.70;0.00;0.00;0.62;;;;;25.50;1.00;;;;;;2251866;61;1033;-89
2021/07/24 19:31:46;21311.00;0.07;37.54;0.00;0.00;0.62;;;;;25.70;1.00;;;;;;2251839;61;1005;-89
2021/07/24 19:34:13;0.00;0.00;0.62;0.00;0.00;0.62;;;;;25.80;1.00;;;;;;2252487;61;1995;-89
2021/07/24 19:36:41;136280.00;0.45;236.16;0.00;0.00;0.62;;;;;25.80;1.00;;;;;;2251854;61;1011;-88
2021/07/24 19:39:08;185628.00;0.62;321.18;20187.00;0.07;35.59;;;;;25.90;1.00;;;;;;2251840;61;1270;-89
2021/07/24 19:41:35;0.00;0.00;0.62;0.00;0.00;0.62;;;;;25.70;1.00;;;;;;2251765;61;1043;-88
2021/07/24 19:44:02;121114.00;0.40;210.00;0.00;0.00;0.62;;;;;25.40;1.00;;;;;;2251749;61;1704;-89
2021/07/24 19:46:31;160874.00;0.54;278.55;0.00;0.00;0.62;;;;;25.20;1.00;;;;;;2251879;61;1033;-89
2021/07/24 19:48:59;108450.00;0.36;188.16;0.00;0.00;0.62;;;;;25.10;1.00;;;;;;2251867;61;1756;-89
2021/07/24 19:51:26;102927.00;0.34;178.62;0.00;0.00;0.62;;;;;24.90;1.00;;;;;;2248582;61;999;-89
2021/07/24 19:53:53;58227.00;0.19;101.41;0.00;0.00;0.62;;;;;24.80;1.00;;;;;;2245852;61;1916;-89
2021/07/24 19:56:20;29818.00;0.10;52.27;0.00;0.00;0.62;;;;;24.50;1.00;;;;;;2252598;61;961;-88
2021/07/24 19:58:47;36656.00;0.12;64.10;0.00;0.00;0.62;;;;;24.50;1.00;;;;;;2259769;61;1004;-87
2021/07/24 20:01:14;216819.00;0.72;374.87;54597.00;0.18;95.14;;;;;24.90;1.00;;;;;;2248287;61;979;-87
2021/07/24 20:03:41;69435.00;0.23;120.78;0.00;0.00;0.62;;;;;25.20;1.00;;;;;;2248532;61;1479;-86
2021/07/24 20:06:09;44297.00;0.15;77.32;0.00;0.00;0.62;;;;;25.50;1.00;;;;;;2241965;61;1043;-87
2021/07/24 20:08:36;8140.00;0.03;14.73;0.00;0.00;0.62;;;;;25.60;1.00;;;;;;2245269;61;1058;-88
2021/07/24 20:11:07;82979.00;0.28;144.18;0.00;0.00;0.62;;;;;25.50;1.00;;;;;;2241957;61;988;-87
2021/07/24 20:13:33;38411.00;0.13;67.14;0.00;0.00;0.62;;;;;25.70;1.00;;;;;;2248354;61;1911;-89